^^
Station Historical Data
Daily Summary for February 14, 2017 Units:  Metric    English   Both
« Previous Day
Next Day »
Daily Weekly Monthly Yearly Custom
  High: Low: Average:
Temperature: 36.3 °C 16.4 °C 23.3 °C
Dew Point: 11.7 °C 4 °C 9.8 °C
Humidity: 71% 16% 48%
Wind Speed: 27.4km/h 0km/h 12.1km/h
Wind Gust: 38.6km/h - -
Wind- - SW
Pressure: 1008 hPa 1002.9 hPa -
Precipitation: 0 mm    
Historical Graphs
 
 
Tabular Data for February 14, 2017
Time Temperature Dew Point Pressure Wind Wind Speed Wind Gust Humidity Rainfall Rate (Hourly) solar Conditions
00:01 20.7 °C 10.8 °C 1008 hPa SSW 16.3 km/h 20.9 km/h 53% 0 mm 0.0 W/m2
00:06 20.6 °C 11 °C 1008 hPa SSW 13 km/h 17.7 km/h 54% 0 mm 0.0 W/m2
00:16 20.3 °C 11 °C 1008 hPa SSW 16.3 km/h 22.5 km/h 55% 0 mm 0.0 W/m2
00:21 20.3 °C 11.2 °C 1008 hPa SSW 13 km/h 20.9 km/h 56% 0 mm 0.0 W/m2
00:26 20.2 °C 11.1 °C 1008 hPa SSW 17.7 km/h 20.9 km/h 56% 0 mm 0.0 W/m2
00:31 20.1 °C 11 °C 1007.7 hPa SSW 14.3 km/h 22.5 km/h 56% 0 mm 0.0 W/m2
00:36 20 °C 11 °C 1007.7 hPa SSW 11.1 km/h 22.5 km/h 56% 0 mm 0.0 W/m2
00:46 19.9 °C 11.1 °C 1008 hPa SW 16.3 km/h 24.1 km/h 57% 0 mm 0.0 W/m2
00:51 19.8 °C 11 °C 1008 hPa SW 14.3 km/h 20.9 km/h 57% 0 mm 0.0 W/m2
00:56 19.8 °C 11.3 °C 1008 hPa SSW 14.3 km/h 22.5 km/h 58% 0 mm 0.0 W/m2
01:01 19.7 °C 11.2 °C 1008 hPa SW 19.5 km/h 22.5 km/h 58% 0 mm 0.0 W/m2
01:06 19.7 °C 11.2 °C 1008 hPa SW 14.3 km/h 22.5 km/h 58% 0 mm 0.0 W/m2
01:11 19.6 °C 11.1 °C 1007.7 hPa SSW 19.5 km/h 24.1 km/h 58% 0 mm 0.0 W/m2
01:16 19.5 °C 11.3 °C 1008 hPa SW 13 km/h 17.7 km/h 59% 0 mm 0.0 W/m2
01:21 19.5 °C 11.3 °C 1008 hPa SSW 14.3 km/h 20.9 km/h 59% 0 mm 0.0 W/m2
01:26 19.5 °C 11.3 °C 1008 hPa SSW 9.7 km/h 20.9 km/h 59% 0 mm 0.0 W/m2
01:31 19.4 °C 11.2 °C 1008 hPa SSW 19.5 km/h 20.9 km/h 59% 0 mm 0.0 W/m2
01:36 19.4 °C 11.4 °C 1008 hPa SSW 7.9 km/h 12.9 km/h 60% 0 mm 0.0 W/m2
01:41 19.2 °C 11.2 °C 1007.7 hPa SW 11.1 km/h 17.7 km/h 60% 0 mm 0.0 W/m2
01:46 19.1 °C 11.2 °C 1007.7 hPa SW 11.1 km/h 17.7 km/h 60% 0 mm 0.0 W/m2
01:51 19 °C 11.3 °C 1007.7 hPa SSW 13 km/h 16.1 km/h 61% 0 mm 0.0 W/m2
02:01 18.8 °C 11.1 °C 1007.3 hPa SW 14.3 km/h 22.5 km/h 61% 0 mm 0.0 W/m2
02:06 18.8 °C 11.1 °C 1007.3 hPa SSW 14.3 km/h 17.7 km/h 61% 0 mm 0.0 W/m2
02:11 18.7 °C 11 °C 1007.3 hPa SW 17.7 km/h 17.7 km/h 61% 0 mm 0.0 W/m2
02:16 18.7 °C 11.3 °C 1007.3 hPa SW 19.5 km/h 19.5 km/h 62% 0 mm 0.0 W/m2
02:21 18.6 °C 11.4 °C 1007.7 hPa SW 14.3 km/h 20.9 km/h 63% 0 mm 0.0 W/m2
02:27 18.5 °C 11.3 °C 1007.3 hPa SW 16.3 km/h 19.3 km/h 63% 0 mm 0.0 W/m2
02:32 18.5 °C 11.3 °C 1007.3 hPa SSW 19.5 km/h 22.5 km/h 63% 0 mm 0.0 W/m2
02:37 18.4 °C 11.2 °C 1007.3 hPa SSW 14.3 km/h 19.3 km/h 63% 0 mm 0.0 W/m2
02:42 18.4 °C 11.2 °C 1007.3 hPa SSW 11.1 km/h 14.5 km/h 63% 0 mm 0.0 W/m2
02:47 18.3 °C 11.1 °C 1007.3 hPa SSW 14.3 km/h 17.7 km/h 63% 0 mm 0.0 W/m2
02:52 18.3 °C 11.1 °C 1007.3 hPa SSW 17.7 km/h 17.7 km/h 63% 0 mm 0.0 W/m2
02:57 18.2 °C 11 °C 1007.3 hPa SW 14.3 km/h 16.1 km/h 63% 0 mm 0.0 W/m2
03:02 18.2 °C 11.3 °C 1007.3 hPa SW 11.1 km/h 14.5 km/h 64% 0 mm 0.0 W/m2
03:07 18.1 °C 11.2 °C 1007.3 hPa SW 7.9 km/h 16.1 km/h 64% 0 mm 0.0 W/m2
03:12 18.1 °C 11.2 °C 1007 hPa SW 11.1 km/h 14.5 km/h 64% 0 mm 0.0 W/m2
03:22 17.9 °C 11 °C 1007 hPa SW 13 km/h 14.5 km/h 64% 0 mm 0.0 W/m2
03:27 17.9 °C 11 °C 1007 hPa SW 14.3 km/h 16.1 km/h 64% 0 mm 0.0 W/m2
03:32 17.8 °C 10.9 °C 1006.7 hPa SW 14.3 km/h 16.1 km/h 64% 0 mm 0.0 W/m2
03:37 17.8 °C 10.9 °C 1006.7 hPa SW 7.9 km/h 12.9 km/h 64% 0 mm 0.0 W/m2
03:42 17.8 °C 10.9 °C 1007 hPa SW 7.9 km/h 14.5 km/h 64% 0 mm 0.0 W/m2
03:47 17.7 °C 10.8 °C 1007 hPa SW 9.7 km/h 11.3 km/h 64% 0 mm 0.0 W/m2
03:52 17.7 °C 10.8 °C 1007 hPa SW 9.7 km/h 11.3 km/h 64% 0 mm 0.0 W/m2
03:57 17.7 °C 11 °C 1007 hPa SW 11.1 km/h 12.9 km/h 65% 0 mm 0.0 W/m2
04:02 17.6 °C 10.9 °C 1006.7 hPa SW 7.9 km/h 11.3 km/h 65% 0 mm 0.0 W/m2
04:07 17.6 °C 10.9 °C 1006.7 hPa SW 11.1 km/h 16.1 km/h 65% 0 mm 0.0 W/m2
04:12 17.5 °C 10.8 °C 1006.7 hPa SW 11.1 km/h 12.9 km/h 65% 0 mm 0.0 W/m2
04:22 17.4 °C 11 °C 1006.7 hPa SSW 16.3 km/h 16.3 km/h 66% 0 mm 0.0 W/m2
04:27 17.3 °C 10.9 °C 1006.7 hPa SSW 13 km/h 16.1 km/h 66% 0 mm 0.0 W/m2
04:32 17.2 °C 11 °C 1006.7 hPa SSW 13 km/h 14.5 km/h 67% 0 mm 0.0 W/m2
04:38 17.2 °C 11 °C 1006.7 hPa SSW 11.1 km/h 14.5 km/h 67% 0 mm 0.0 W/m2
04:43 17.1 °C 10.9 °C 1006.7 hPa SSW 9.7 km/h 12.9 km/h 67% 0 mm 0.0 W/m2
04:48 17.1 °C 10.9 °C 1006.7 hPa SSW 13 km/h 13 km/h 67% 0 mm 0.0 W/m2
04:53 17.1 °C 11.1 °C 1006.7 hPa SSW 9.7 km/h 14.5 km/h 68% 0 mm 0.0 W/m2
04:58 17.1 °C 11.1 °C 1006.7 hPa SSW 7.9 km/h 12.9 km/h 68% 0 mm 0.0 W/m2
05:03 17.1 °C 11.1 °C 1006.7 hPa SSW 11.1 km/h 14.5 km/h 68% 0 mm 0.0 W/m2
05:08 17.1 °C 11.1 °C 1006.7 hPa SSW 7.9 km/h 12.9 km/h 68% 0 mm 0.0 W/m2
05:13 17 °C 11.1 °C 1006.7 hPa SSW 11.1 km/h 14.5 km/h 68% 0 mm 0.0 W/m2
05:18 16.9 °C 11 °C 1006.7 hPa SSW 13 km/h 14.5 km/h 68% 0 mm 0.0 W/m2
05:28 16.9 °C 11 °C 1006.7 hPa SSW 13 km/h 14.5 km/h 68% 0 mm 0.0 W/m2
05:33 16.9 °C 11 °C 1006.7 hPa SSW 14.3 km/h 16.1 km/h 68% 0 mm 0.0 W/m2
05:38 16.9 °C 11 °C 1006.7 hPa SSW 11.1 km/h 16.1 km/h 68% 0 mm 0.0 W/m2
05:43 16.8 °C 10.9 °C 1006.3 hPa SSW 9.7 km/h 14.5 km/h 68% 0 mm 0.0 W/m2
05:48 16.8 °C 10.9 °C 1006.3 hPa SW 13 km/h 16.1 km/h 68% 0 mm 0.0 W/m2
05:54 16.7 °C 10.8 °C 1006.3 hPa SW 16.3 km/h 17.7 km/h 68% 0 mm 0.0 W/m2
06:00 16.7 °C 10.8 °C 1006.7 hPa SW 13 km/h 16.1 km/h 68% 0 mm 0.0 W/m2
06:08 16.6 °C 10.9 °C 1006.7 hPa SW 13 km/h 13 km/h 69% 0 mm 0.0 W/m2
06:14 16.6 °C 10.9 °C 1006.7 hPa SW 7.9 km/h 14.5 km/h 69% 0 mm 0.0 W/m2
06:19 16.6 °C 11.1 °C 1006.7 hPa SW 9.7 km/h 16.1 km/h 70% 0 mm 0.0 W/m2
06:29 16.5 °C 11 °C 1006.7 hPa SW 7.9 km/h 11.3 km/h 70% 0 mm 0.0 W/m2
06:34 16.4 °C 10.9 °C 1007 hPa SW 11.1 km/h 12.9 km/h 70% 0 mm 5.0 W/m2
06:39 16.4 °C 10.9 °C 1007 hPa SW 9.7 km/h 12.9 km/h 70% 0 mm 7.0 W/m2
06:49 16.4 °C 11.1 °C 1007 hPa SW 9.7 km/h 14.5 km/h 71% 0 mm 16.0 W/m2
06:54 16.4 °C 10.9 °C 1007 hPa SW 6.4 km/h 12.9 km/h 70% 0 mm 21.0 W/m2
07:02 16.5 °C 11 °C 1007 hPa SW 11.1 km/h 16.1 km/h 70% 0 mm 32.0 W/m2
07:15 16.7 °C 11.2 °C 1007.3 hPa SW 9.7 km/h 12.9 km/h 70% 0 mm 60.0 W/m2
07:26 17 °C 11.3 °C 1007.3 hPa SSW 11.1 km/h 14.5 km/h 69% 0 mm 113.0 W/m2
07:31 17.1 °C 11.4 °C 1007.3 hPa SSW 11.1 km/h 14.5 km/h 69% 0 mm 134.0 W/m2
07:44 17.3 °C 11.3 °C 1007.7 hPa SW 13 km/h 16.1 km/h 68% 0 mm 179.0 W/m2
08:00 17.5 °C 11.5 °C 1007.7 hPa SW 14.3 km/h 14.5 km/h 68% 0 mm 237.0 W/m2
08:14 17.8 °C 11.6 °C 1007.7 hPa SSW 11.1 km/h 14.5 km/h 67% 0 mm 295.0 W/m2
08:28 18.2 °C 11.5 °C 1008 hPa SW 11.1 km/h 14.5 km/h 65% 0 mm 350.0 W/m2
08:33 18.5 °C 11.6 °C 1008 hPa SW 13 km/h 17.7 km/h 64% 0 mm 385.0 W/m2
08:41 18.6 °C 11.7 °C 1008 hPa SW 11.1 km/h 14.5 km/h 64% 0 mm 404.0 W/m2
09:19 19.8 °C 11.6 °C 1008 hPa SW 9.7 km/h 17.7 km/h 59% 0 mm 526.0 W/m2
09:23 20.2 °C 11.7 °C 1008 hPa SW 11.1 km/h 17.7 km/h 58% 0 mm 557.0 W/m2
09:44 20.7 °C 11.6 °C 1008 hPa SW 9.7 km/h 12.9 km/h 56% 0 mm 605.0 W/m2
09:53 21.1 °C 11.4 °C 1008 hPa SW 7.9 km/h 11.3 km/h 54% 0 mm 638.0 W/m2
10:06 21.4 °C 11.7 °C 1008 hPa SW 7.9 km/h 12.9 km/h 54% 0 mm 668.0 W/m2
10:13 22.3 °C 11.7 °C 1007.7 hPa SW 7.9 km/h 12.9 km/h 51% 0 mm 708.0 W/m2
10:29 23 °C 11.4 °C 1007.7 hPa SW 7.9 km/h 9.7 km/h 48% 0 mm 752.0 W/m2
10:49 23.7 °C 11.4 °C 1007.7 hPa Calm     46% 0 mm 791.0 W/m2
11:01 24.3 °C 11.3 °C 1007.7 hPa Calm     44% 0 mm 814.0 W/m2
11:17 25.3 °C 11.1 °C 1007.3 hPa SW 9.7 km/h 9.7 km/h 41% 0 mm 846.0 W/m2
11:33 25.7 °C 10.7 °C 1007.3 hPa Calm     39% 0 mm 874.0 W/m2
11:41 26.5 °C 10.6 °C 1007 hPa Calm   6.4 km/h 37% 0 mm 902.0 W/m2
12:02 27.7 °C 10.8 °C 1007 hPa Calm     35% 0 mm 921.0 W/m2
12:14 28.1 °C 10.8 °C 1007 hPa Calm     34% 0 mm 932.0 W/m2
12:22 28.9 °C 10.5 °C 1006.7 hPa Calm     32% 0 mm 947.0 W/m2
12:38 29.4 °C 10.5 °C 1006.3 hPa Calm     31% 0 mm 949.0 W/m2
12:47 30 °C 10.5 °C 1006.3 hPa Calm     30% 0 mm 954.0 W/m2
12:56 30.3 °C 10.8 °C 1006.3 hPa Calm     30% 0 mm 956.0 W/m2
13:06 30.7 °C 10.6 °C 1006.3 hPa Calm     29% 0 mm 956.0 W/m2
13:14 30.9 °C 10.8 °C 1006 hPa Calm     29% 0 mm 960.0 W/m2
13:24 31.8 °C 11 °C 1005.6 hPa Calm   1.6 km/h 28% 0 mm 960.0 W/m2
13:35 32.5 °C 10.5 °C 1005.6 hPa WNW 1.4 km/h 17.7 km/h 26% 0 mm 951.0 W/m2
13:43 32.8 °C 9.6 °C 1005.6 hPa Calm   4.8 km/h 24% 0 mm 942.0 W/m2
13:59 33.3 °C 8 °C 1005.3 hPa WNW 4.7 km/h 17.7 km/h 21% 0 mm 930.0 W/m2
14:09 33.5 °C 8.2 °C 1005.3 hPa WNW 4.7 km/h 9.7 km/h 21% 0 mm 919.0 W/m2
14:24 34.1 °C 8 °C 1005 hPa Calm     20% 0 mm 895.0 W/m2
14:39 34.6 °C 6.8 °C 1004.6 hPa WNW 4.7 km/h 4.8 km/h 18% 0 mm 881.0 W/m2
14:49 35.2 °C 6.5 °C 1004.6 hPa NW 11.1 km/h 12.9 km/h 17% 0 mm 860.0 W/m2
14:59 35.2 °C 5.6 °C 1004.6 hPa NW 13 km/h 20.9 km/h 16% 0 mm 844.0 W/m2
15:04 35.2 °C 5.6 °C 1004.3 hPa WNW 7.9 km/h 19.3 km/h 16% 0 mm 824.0 W/m2
15:14 35.6 °C 5.9 °C 1004.3 hPa NW 17.7 km/h 17.7 km/h 16% 0 mm 803.0 W/m2
15:19 35.3 °C 5.7 °C 1004.3 hPa NW 19.5 km/h 20.9 km/h 16% 0 mm 791.0 W/m2
15:26 35.6 °C 5.9 °C 1003.9 hPa NW 11.1 km/h 19.3 km/h 16% 0 mm 780.0 W/m2
15:29 35.7 °C 6 °C 1003.9 hPa WNW 16.3 km/h 19.3 km/h 16% 0 mm 765.0 W/m2
15:34 35.6 °C 5.9 °C 1003.9 hPa WNW 3.2 km/h 17.7 km/h 16% 0 mm 752.0 W/m2
15:39 35.8 °C 6.1 °C 1003.9 hPa WNW 16.3 km/h 16.3 km/h 16% 0 mm 738.0 W/m2
15:44 35.6 °C 5.9 °C 1003.6 hPa WNW 9.7 km/h 17.7 km/h 16% 0 mm 724.0 W/m2
15:55 36 °C 6.2 °C 1003.6 hPa Calm     16% 0 mm 696.0 W/m2
16:17 36.1 °C 6.3 °C 1003.3 hPa WNW 11.1 km/h 19.3 km/h 16% 0 mm 650.0 W/m2
16:26 36.3 °C 6.5 °C 1003.3 hPa Calm     16% 0 mm 621.0 W/m2
16:31 36.1 °C 8.8 °C 1002.9 hPa Calm   17.7 km/h 19% 0 mm 589.0 W/m2
16:41 35.7 °C 8.5 °C 1002.9 hPa SSW 16.3 km/h 29 km/h 19% 0 mm 552.0 W/m2
17:03 34.9 °C 8.6 °C 1002.9 hPa SSW 22.7 km/h 27.4 km/h 20% 0 mm 501.0 W/m2
17:11 34.6 °C 9.1 °C 1002.9 hPa SSW 27.4 km/h 33.8 km/h 21% 0 mm 452.0 W/m2
17:34 34.1 °C 9.4 °C 1002.9 hPa SSW 24.1 km/h 30.6 km/h 22% 0 mm 396.0 W/m2
17:48 33.6 °C 8.9 °C 1002.9 hPa SW 27.4 km/h 32.2 km/h 22% 0 mm 343.0 W/m2
18:02 32.6 °C 8.1 °C 1002.9 hPa SW 19.5 km/h 35.4 km/h 22% 0 mm 287.0 W/m2
18:11 32.2 °C 7.8 °C 1002.9 hPa SW 24.1 km/h 35.4 km/h 22% 0 mm 229.0 W/m2
18:26 31.7 °C 8 °C 1003.3 hPa SSW 27.4 km/h 38.6 km/h 23% 0 mm 169.0 W/m2
18:48 31.3 °C 7.7 °C 1003.6 hPa SW 24.1 km/h 29 km/h 23% 0 mm 104.0 W/m2
18:56 30.7 °C 7.8 °C 1003.6 hPa South 20.9 km/h 27.4 km/h 24% 0 mm 53.0 W/m2
19:19 30.1 °C 7.3 °C 1003.9 hPa SSW 22.7 km/h 29 km/h 24% 0 mm 18.0 W/m2
19:26 29.3 °C 7.2 °C 1004.3 hPa SSW 25.9 km/h 30.6 km/h 25% 0 mm 7.0 W/m2
19:49 28.7 °C 6.7 °C 1004.6 hPa SSW 19.5 km/h 25.7 km/h 25% 0 mm 0.0 W/m2
19:57 28.2 °C 6.9 °C 1004.6 hPa SSW 19.5 km/h 22.5 km/h 26% 0 mm 0.0 W/m2
20:19 27.9 °C 6.1 °C 1005 hPa SSW 20.9 km/h 20.9 km/h 25% 0 mm 0.0 W/m2
20:33 27.5 °C 6.3 °C 1005.6 hPa South 13 km/h 24.1 km/h 26% 0 mm 0.0 W/m2
20:49 27 °C 5.9 °C 1005.6 hPa SSW 20.9 km/h 25.7 km/h 26% 0 mm 0.0 W/m2
20:57 26.5 °C 4.3 °C 1006 hPa SSW 17.7 km/h 22.5 km/h 24% 0 mm 0.0 W/m2
21:12 26.2 °C 4.6 °C 1006 hPa SSW 17.7 km/h 19.3 km/h 25% 0 mm 0.0 W/m2
21:27 25.9 °C 4.4 °C 1006.3 hPa SW 16.3 km/h 24.1 km/h 25% 0 mm 0.0 W/m2
21:42 25.5 °C 4 °C 1006.3 hPa SW 20.9 km/h 20.9 km/h 25% 0 mm 0.0 W/m2
21:57 25.1 °C 4.8 °C 1006.7 hPa SW 16.3 km/h 22.5 km/h 27% 0 mm 0.0 W/m2
22:12 24.7 °C 5.5 °C 1007 hPa SSW 22.7 km/h 22.7 km/h 29% 0 mm 0.0 W/m2
22:34 24.1 °C 6.4 °C 1007.3 hPa SSW 19.5 km/h 22.5 km/h 32% 0 mm 0.0 W/m2
22:42 23.7 °C 7.3 °C 1007.3 hPa SSW 16.3 km/h 17.7 km/h 35% 0 mm 0.0 W/m2
22:48 23.6 °C 7.7 °C 1007.3 hPa SSW 14.3 km/h 19.3 km/h 36% 0 mm 0.0 W/m2
Canyon Roadhouse, Fishriver Canyon, Namibia
Compliments of Weather Underground - 2.5 mb